sensor_id;sensor_type;location;lat;lon;timestamp;P1;durP1;ratioP1;P2;durP2;ratioP2
64351;SDS011;50680;52.626;-8.668;2023-04-01T00:01:15;14.70;;;1.83;;
64351;SDS011;50680;52.626;-8.668;2023-04-01T00:03:43;17.63;;;2.03;;
64351;SDS011;50680;52.626;-8.668;2023-04-01T00:06:14;24.02;;;2.80;;
64351;SDS011;50680;52.626;-8.668;2023-04-01T00:08:43;14.95;;;2.60;;
64351;SDS011;50680;52.626;-8.668;2023-04-01T00:11:11;25.20;;;3.08;;
64351;SDS011;50680;52.626;-8.668;2023-04-01T00:13:38;17.23;;;2.55;;
64351;SDS011;50680;52.626;-8.668;2023-04-01T00:16:06;27.20;;;2.80;;
64351;SDS011;50680;52.626;-8.668;2023-04-01T00:18:46;23.13;;;2.10;;
64351;SDS011;50680;52.626;-8.668;2023-04-01T00:21:16;19.70;;;2.17;;
64351;SDS011;50680;52.626;-8.668;2023-04-01T00:23:43;18.85;;;2.25;;
64351;SDS011;50680;52.626;-8.668;2023-04-01T00:26:10;20.55;;;2.35;;
64351;SDS011;50680;52.626;-8.668;2023-04-01T00:28:39;18.48;;;1.77;;
64351;SDS011;50680;52.626;-8.668;2023-04-01T00:31:07;16.60;;;2.20;;
64351;SDS011;50680;52.626;-8.668;2023-04-01T00:33:34;28.35;;;2.25;;
64351;SDS011;50680;52.626;-8.668;2023-04-01T00:36:08;22.77;;;2.25;;
64351;SDS011;50680;52.626;-8.668;2023-04-01T00:38:39;23.02;;;2.20;;
64351;SDS011;50680;52.626;-8.668;2023-04-01T00:41:08;15.07;;;1.83;;
64351;SDS011;50680;52.626;-8.668;2023-04-01T00:43:41;15.55;;;1.63;;
64351;SDS011;50680;52.626;-8.668;2023-04-01T00:46:09;13.45;;;1.92;;
64351;SDS011;50680;52.626;-8.668;2023-04-01T00:48:36;26.00;;;2.13;;
64351;SDS011;50680;52.626;-8.668;2023-04-01T00:51:07;23.45;;;2.25;;
64351;SDS011;50680;52.626;-8.668;2023-04-01T00:53:55;8.88;;;1.85;;
64351;SDS011;50680;52.626;-8.668;2023-04-01T00:56:25;15.15;;;1.90;;
64351;SDS011;50680;52.626;-8.668;2023-04-01T00:59:06;17.60;;;2.13;;
64351;SDS011;50680;52.626;-8.668;2023-04-01T01:01:38;20.80;;;2.35;;
64351;SDS011;50680;52.626;-8.668;2023-04-01T01:04:04;13.15;;;2.00;;
64351;SDS011;50680;52.626;-8.668;2023-04-01T01:07:06;20.50;;;2.10;;
64351;SDS011;50680;52.626;-8.668;2023-04-01T01:10:08;16.73;;;1.90;;
64351;SDS011;50680;52.626;-8.668;2023-04-01T01:12:45;18.70;;;1.90;;
64351;SDS011;50680;52.626;-8.668;2023-04-01T01:15:25;24.00;;;2.38;;
64351;SDS011;50680;52.626;-8.668;2023-04-01T01:29:01;16.60;;;2.40;;
64351;SDS011;50680;52.626;-8.668;2023-04-01T01:34:50;19.27;;;2.08;;
64351;SDS011;50680;52.626;-8.668;2023-04-01T01:37:20;24.73;;;2.30;;
64351;SDS011;50680;52.626;-8.668;2023-04-01T01:39:54;22.20;;;2.33;;
64351;SDS011;50680;52.626;-8.668;2023-04-01T01:42:24;17.33;;;2.10;;
64351;SDS011;50680;52.626;-8.668;2023-04-01T01:44:53;24.92;;;2.13;;
64351;SDS011;50680;52.626;-8.668;2023-04-01T01:47:23;9.50;;;2.00;;
64351;SDS011;50680;52.626;-8.668;2023-04-01T01:49:51;23.80;;;1.95;;
64351;SDS011;50680;52.626;-8.668;2023-04-01T01:52:21;12.80;;;2.22;;
64351;SDS011;50680;52.626;-8.668;2023-04-01T01:54:53;14.55;;;1.77;;
64351;SDS011;50680;52.626;-8.668;2023-04-01T01:57:43;18.80;;;1.95;;
64351;SDS011;50680;52.626;-8.668;2023-04-01T02:00:11;11.05;;;2.13;;
64351;SDS011;50680;52.626;-8.668;2023-04-01T02:02:41;12.23;;;1.92;;
64351;SDS011;50680;52.626;-8.668;2023-04-01T02:05:11;18.80;;;1.90;;
64351;SDS011;50680;52.626;-8.668;2023-04-01T02:07:44;18.25;;;1.98;;
64351;SDS011;50680;52.626;-8.668;2023-04-01T02:10:16;12.52;;;1.75;;
64351;SDS011;50680;52.626;-8.668;2023-04-01T02:12:45;15.80;;;1.98;;
64351;SDS011;50680;52.626;-8.668;2023-04-01T02:15:14;14.10;;;1.95;;
64351;SDS011;50680;52.626;-8.668;2023-04-01T02:17:43;15.27;;;1.73;;
64351;SDS011;50680;52.626;-8.668;2023-04-01T02:20:14;13.93;;;1.95;;
64351;SDS011;50680;52.626;-8.668;2023-04-01T02:22:47;19.70;;;1.60;;
64351;SDS011;50680;52.626;-8.668;2023-04-01T02:27:49;15.52;;;2.10;;
64351;SDS011;50680;52.626;-8.668;2023-04-01T02:30:16;13.30;;;1.38;;
64351;SDS011;50680;52.626;-8.668;2023-04-01T02:32:43;10.93;;;1.83;;
64351;SDS011;50680;52.626;-8.668;2023-04-01T02:35:13;14.15;;;2.03;;
64351;SDS011;50680;52.626;-8.668;2023-04-01T02:37:42;12.30;;;1.88;;
64351;SDS011;50680;52.626;-8.668;2023-04-01T02:40:12;4.55;;;1.40;;
64351;SDS011;50680;52.626;-8.668;2023-04-01T02:42:40;16.88;;;1.30;;
64351;SDS011;50680;52.626;-8.668;2023-04-01T02:45:07;13.57;;;1.55;;
64351;SDS011;50680;52.626;-8.668;2023-04-01T02:47:35;8.02;;;1.35;;
64351;SDS011;50680;52.626;-8.668;2023-04-01T02:50:01;12.90;;;1.50;;
64351;SDS011;50680;52.626;-8.668;2023-04-01T02:52:29;20.35;;;2.13;;
64351;SDS011;50680;52.626;-8.668;2023-04-01T02:54:56;16.35;;;1.67;;
64351;SDS011;50680;52.626;-8.668;2023-04-01T02:57:24;9.88;;;1.30;;
64351;SDS011;50680;52.626;-8.668;2023-04-01T02:59:51;16.45;;;1.50;;
64351;SDS011;50680;52.626;-8.668;2023-04-01T03:02:18;20.02;;;1.70;;
64351;SDS011;50680;52.626;-8.668;2023-04-01T03:04:45;16.95;;;1.60;;
64351;SDS011;50680;52.626;-8.668;2023-04-01T03:07:12;10.10;;;1.48;;
64351;SDS011;50680;52.626;-8.668;2023-04-01T03:09:39;12.20;;;1.85;;
64351;SDS011;50680;52.626;-8.668;2023-04-01T03:12:06;12.30;;;1.60;;
64351;SDS011;50680;52.626;-8.668;2023-04-01T03:14:33;12.48;;;1.33;;
64351;SDS011;50680;52.626;-8.668;2023-04-01T03:16:59;11.15;;;1.73;;
64351;SDS011;50680;52.626;-8.668;2023-04-01T03:19:27;13.55;;;1.52;;
64351;SDS011;50680;52.626;-8.668;2023-04-01T03:21:53;14.70;;;1.67;;
64351;SDS011;50680;52.626;-8.668;2023-04-01T03:24:20;14.00;;;1.50;;
64351;SDS011;50680;52.626;-8.668;2023-04-01T03:26:47;10.98;;;1.17;;
64351;SDS011;50680;52.626;-8.668;2023-04-01T03:29:14;11.07;;;1.30;;
64351;SDS011;50680;52.626;-8.668;2023-04-01T03:31:42;14.55;;;1.58;;
64351;SDS011;50680;52.626;-8.668;2023-04-01T03:34:09;15.32;;;1.60;;
64351;SDS011;50680;52.626;-8.668;2023-04-01T03:36:36;14.18;;;1.98;;
64351;SDS011;50680;52.626;-8.668;2023-04-01T03:39:03;10.57;;;1.48;;
64351;SDS011;50680;52.626;-8.668;2023-04-01T03:41:31;15.50;;;2.08;;
64351;SDS011;50680;52.626;-8.668;2023-04-01T03:43:58;14.75;;;1.80;;
64351;SDS011;50680;52.626;-8.668;2023-04-01T03:46:25;17.10;;;1.73;;
64351;SDS011;50680;52.626;-8.668;2023-04-01T03:48:52;15.65;;;1.50;;
64351;SDS011;50680;52.626;-8.668;2023-04-01T03:51:18;11.63;;;1.50;;
64351;SDS011;50680;52.626;-8.668;2023-04-01T03:53:45;14.80;;;1.70;;
64351;SDS011;50680;52.626;-8.668;2023-04-01T03:56:12;11.02;;;1.20;;
64351;SDS011;50680;52.626;-8.668;2023-04-01T03:58:39;9.82;;;1.30;;
64351;SDS011;50680;52.626;-8.668;2023-04-01T04:01:19;11.65;;;1.27;;
64351;SDS011;50680;52.626;-8.668;2023-04-01T04:03:47;7.57;;;1.10;;
64351;SDS011;50680;52.626;-8.668;2023-04-01T04:06:16;8.85;;;1.20;;
64351;SDS011;50680;52.626;-8.668;2023-04-01T04:08:45;13.00;;;1.10;;
64351;SDS011;50680;52.626;-8.668;2023-04-01T04:11:12;12.38;;;1.40;;
64351;SDS011;50680;52.626;-8.668;2023-04-01T04:13:39;2.92;;;0.88;;
64351;SDS011;50680;52.626;-8.668;2023-04-01T04:16:07;10.27;;;1.15;;
64351;SDS011;50680;52.626;-8.668;2023-04-01T04:18:35;9.27;;;1.30;;
64351;SDS011;50680;52.626;-8.668;2023-04-01T04:21:02;2.80;;;0.93;;
64351;SDS011;50680;52.626;-8.668;2023-04-01T04:23:30;8.77;;;1.08;;
64351;SDS011;50680;52.626;-8.668;2023-04-01T04:26:03;8.18;;;1.27;;
64351;SDS011;50680;52.626;-8.668;2023-04-01T04:28:32;9.93;;;1.30;;
64351;SDS011;50680;52.626;-8.668;2023-04-01T04:30:59;10.40;;;1.00;;
64351;SDS011;50680;52.626;-8.668;2023-04-01T04:33:27;7.63;;;1.50;;
64351;SDS011;50680;52.626;-8.668;2023-04-01T04:35:57;9.60;;;1.20;;
64351;SDS011;50680;52.626;-8.668;2023-04-01T04:38:25;9.18;;;1.25;;
64351;SDS011;50680;52.626;-8.668;2023-04-01T04:40:53;11.70;;;1.40;;
64351;SDS011;50680;52.626;-8.668;2023-04-01T04:43:20;13.65;;;1.20;;
64351;SDS011;50680;52.626;-8.668;2023-04-01T04:45:47;11.32;;;1.20;;
64351;SDS011;50680;52.626;-8.668;2023-04-01T04:48:15;13.95;;;1.40;;
64351;SDS011;50680;52.626;-8.668;2023-04-01T04:50:46;11.40;;;1.20;;
64351;SDS011;50680;52.626;-8.668;2023-04-01T04:55:44;11.05;;;1.65;;
64351;SDS011;50680;52.626;-8.668;2023-04-01T04:58:12;11.20;;;1.50;;
64351;SDS011;50680;52.626;-8.668;2023-04-01T05:00:39;16.88;;;2.13;;
64351;SDS011;50680;52.626;-8.668;2023-04-01T05:03:06;19.55;;;2.17;;
64351;SDS011;50680;52.626;-8.668;2023-04-01T05:05:33;10.15;;;1.40;;
64351;SDS011;50680;52.626;-8.668;2023-04-01T05:08:00;20.25;;;1.60;;
64351;SDS011;50680;52.626;-8.668;2023-04-01T05:10:27;16.67;;;2.00;;
64351;SDS011;50680;52.626;-8.668;2023-04-01T05:12:54;12.80;;;1.35;;
64351;SDS011;50680;52.626;-8.668;2023-04-01T05:15:21;8.73;;;1.77;;
64351;SDS011;50680;52.626;-8.668;2023-04-01T05:17:48;8.80;;;1.67;;
64351;SDS011;50680;52.626;-8.668;2023-04-01T05:20:15;18.20;;;2.15;;
64351;SDS011;50680;52.626;-8.668;2023-04-01T05:22:43;12.00;;;2.20;;
64351;SDS011;50680;52.626;-8.668;2023-04-01T05:25:09;17.35;;;1.63;;
64351;SDS011;50680;52.626;-8.668;2023-04-01T05:27:36;13.50;;;1.88;;
64351;SDS011;50680;52.626;-8.668;2023-04-01T05:30:03;15.57;;;1.63;;
64351;SDS011;50680;52.626;-8.668;2023-04-01T05:32:31;17.67;;;2.10;;
64351;SDS011;50680;52.626;-8.668;2023-04-01T05:34:58;14.07;;;1.70;;
64351;SDS011;50680;52.626;-8.668;2023-04-01T05:37:25;25.40;;;2.05;;
64351;SDS011;50680;52.626;-8.668;2023-04-01T05:39:52;13.32;;;2.00;;
64351;SDS011;50680;52.626;-8.668;2023-04-01T05:42:19;16.92;;;2.00;;
64351;SDS011;50680;52.626;-8.668;2023-04-01T05:44:46;13.13;;;1.80;;
64351;SDS011;50680;52.626;-8.668;2023-04-01T05:47:12;8.07;;;1.60;;
64351;SDS011;50680;52.626;-8.668;2023-04-01T05:49:39;10.30;;;1.67;;
64351;SDS011;50680;52.626;-8.668;2023-04-01T05:52:06;12.73;;;1.70;;
64351;SDS011;50680;52.626;-8.668;2023-04-01T05:54:33;15.45;;;1.90;;
64351;SDS011;50680;52.626;-8.668;2023-04-01T05:57:00;8.05;;;1.83;;
64351;SDS011;50680;52.626;-8.668;2023-04-01T05:59:27;17.08;;;1.90;;
64351;SDS011;50680;52.626;-8.668;2023-04-01T06:01:53;19.45;;;1.60;;
64351;SDS011;50680;52.626;-8.668;2023-04-01T06:04:20;11.45;;;1.95;;
64351;SDS011;50680;52.626;-8.668;2023-04-01T06:06:48;17.17;;;1.73;;
64351;SDS011;50680;52.626;-8.668;2023-04-01T06:11:51;10.40;;;1.70;;
64351;SDS011;50680;52.626;-8.668;2023-04-01T06:14:36;10.98;;;1.65;;
64351;SDS011;50680;52.626;-8.668;2023-04-01T06:22:53;8.30;;;1.10;;
64351;SDS011;50680;52.626;-8.668;2023-04-01T06:28:26;6.93;;;1.10;;
64351;SDS011;50680;52.626;-8.668;2023-04-01T06:31:29;7.18;;;1.05;;
64351;SDS011;50680;52.626;-8.668;2023-04-01T06:42:33;3.25;;;0.88;;
64351;SDS011;50680;52.626;-8.668;2023-04-01T06:56:37;5.88;;;1.10;;
64351;SDS011;50680;52.626;-8.668;2023-04-01T07:01:52;7.88;;;0.80;;
64351;SDS011;50680;52.626;-8.668;2023-04-01T07:04:25;6.60;;;0.90;;
64351;SDS011;50680;52.626;-8.668;2023-04-01T07:07:31;6.00;;;1.00;;
64351;SDS011;50680;52.626;-8.668;2023-04-01T07:10:15;7.43;;;1.45;;
64351;SDS011;50680;52.626;-8.668;2023-04-01T07:12:46;7.60;;;1.40;;
64351;SDS011;50680;52.626;-8.668;2023-04-01T07:15:19;4.40;;;1.20;;
64351;SDS011;50680;52.626;-8.668;2023-04-01T07:18:02;9.70;;;0.98;;
64351;SDS011;50680;52.626;-8.668;2023-04-01T07:20:36;8.50;;;1.20;;
64351;SDS011;50680;52.626;-8.668;2023-04-01T07:23:05;4.25;;;1.30;;
64351;SDS011;50680;52.626;-8.668;2023-04-01T07:25:38;3.67;;;0.80;;
64351;SDS011;50680;52.626;-8.668;2023-04-01T07:28:13;5.28;;;0.90;;
64351;SDS011;50680;52.626;-8.668;2023-04-01T07:36:22;5.85;;;0.82;;
64351;SDS011;50680;52.626;-8.668;2023-04-01T07:39:06;5.70;;;0.85;;
64351;SDS011;50680;52.626;-8.668;2023-04-01T07:53:03;5.63;;;1.15;;
64351;SDS011;50680;52.626;-8.668;2023-04-01T07:55:46;2.40;;;0.90;;
64351;SDS011;50680;52.626;-8.668;2023-04-01T07:58:35;5.57;;;0.90;;
64351;SDS011;50680;52.626;-8.668;2023-04-01T08:03:38;5.38;;;1.27;;
64351;SDS011;50680;52.626;-8.668;2023-04-01T08:17:28;10.00;;;1.60;;
64351;SDS011;50680;52.626;-8.668;2023-04-01T08:22:42;12.57;;;1.30;;
64351;SDS011;50680;52.626;-8.668;2023-04-01T08:25:25;8.35;;;1.63;;
64351;SDS011;50680;52.626;-8.668;2023-04-01T08:27:57;7.72;;;1.55;;
64351;SDS011;50680;52.626;-8.668;2023-04-01T08:30:49;11.23;;;2.30;;
64351;SDS011;50680;52.626;-8.668;2023-04-01T08:33:29;8.52;;;1.55;;
64351;SDS011;50680;52.626;-8.668;2023-04-01T08:36:08;13.40;;;1.63;;
64351;SDS011;50680;52.626;-8.668;2023-04-01T08:38:59;6.88;;;2.08;;
64351;SDS011;50680;52.626;-8.668;2023-04-01T08:54:55;10.52;;;1.70;;
64351;SDS011;50680;52.626;-8.668;2023-04-01T08:57:51;7.75;;;1.40;;
64351;SDS011;50680;52.626;-8.668;2023-04-01T09:00:29;5.97;;;1.10;;
64351;SDS011;50680;52.626;-8.668;2023-04-01T09:08:42;6.13;;;1.13;;
64351;SDS011;50680;52.626;-8.668;2023-04-01T09:14:51;6.30;;;1.25;;
64351;SDS011;50680;52.626;-8.668;2023-04-01T09:20:20;4.47;;;1.70;;
64351;SDS011;50680;52.626;-8.668;2023-04-01T09:40:15;4.28;;;1.30;;
64351;SDS011;50680;52.626;-8.668;2023-04-01T09:51:51;10.90;;;1.88;;
64351;SDS011;50680;52.626;-8.668;2023-04-01T09:54:50;6.05;;;1.60;;
64351;SDS011;50680;52.626;-8.668;2023-04-01T10:00:24;8.15;;;1.70;;
64351;SDS011;50680;52.626;-8.668;2023-04-01T10:22:59;11.90;;;2.00;;
64351;SDS011;50680;52.626;-8.668;2023-04-01T10:32:39;8.23;;;1.45;;
64351;SDS011;50680;52.626;-8.668;2023-04-01T11:14:14;6.97;;;1.90;;
64351;SDS011;50680;52.626;-8.668;2023-04-01T11:33:28;10.40;;;1.88;;
64351;SDS011;50680;52.626;-8.668;2023-04-01T11:44:18;6.72;;;1.88;;
64351;SDS011;50680;52.626;-8.668;2023-04-01T11:55:06;11.95;;;2.30;;
64351;SDS011;50680;52.626;-8.668;2023-04-01T11:57:51;14.32;;;2.50;;
64351;SDS011;50680;52.626;-8.668;2023-04-01T12:11:46;8.63;;;2.03;;
64351;SDS011;50680;52.626;-8.668;2023-04-01T12:14:54;6.95;;;2.13;;
64351;SDS011;50680;52.626;-8.668;2023-04-01T12:20:33;11.40;;;2.10;;
64351;SDS011;50680;52.626;-8.668;2023-04-01T12:34:19;6.97;;;1.80;;
64351;SDS011;50680;52.626;-8.668;2023-04-01T12:37:14;5.28;;;1.70;;
64351;SDS011;50680;52.626;-8.668;2023-04-01T12:39:59;5.22;;;1.77;;
64351;SDS011;50680;52.626;-8.668;2023-04-01T12:45:04;6.90;;;1.63;;
64351;SDS011;50680;52.626;-8.668;2023-04-01T12:56:44;8.55;;;2.25;;
64351;SDS011;50680;52.626;-8.668;2023-04-01T13:05:56;6.05;;;1.90;;
64351;SDS011;50680;52.626;-8.668;2023-04-01T13:23:49;9.27;;;2.30;;
64351;SDS011;50680;52.626;-8.668;2023-04-01T13:26:34;11.15;;;2.00;;
64351;SDS011;50680;52.626;-8.668;2023-04-01T13:29:25;15.23;;;2.30;;
64351;SDS011;50680;52.626;-8.668;2023-04-01T13:32:29;7.35;;;1.70;;
64351;SDS011;50680;52.626;-8.668;2023-04-01T13:38:01;3.85;;;1.85;;
64351;SDS011;50680;52.626;-8.668;2023-04-01T13:40:52;10.30;;;2.15;;
64351;SDS011;50680;52.626;-8.668;2023-04-01T13:43:34;4.47;;;1.73;;
64351;SDS011;50680;52.626;-8.668;2023-04-01T13:55:14;5.47;;;1.67;;
64351;SDS011;50680;52.626;-8.668;2023-04-01T14:03:13;8.93;;;2.30;;
64351;SDS011;50680;52.626;-8.668;2023-04-01T14:08:51;8.27;;;1.98;;
64351;SDS011;50680;52.626;-8.668;2023-04-01T14:40:33;8.82;;;3.30;;
64351;SDS011;50680;52.626;-8.668;2023-04-01T14:46:04;5.45;;;3.03;;
64351;SDS011;50680;52.626;-8.668;2023-04-01T14:49:13;8.00;;;3.00;;
64351;SDS011;50680;52.626;-8.668;2023-04-01T14:51:46;12.38;;;2.97;;
64351;SDS011;50680;52.626;-8.668;2023-04-01T14:54:15;10.93;;;3.40;;
64351;SDS011;50680;52.626;-8.668;2023-04-01T14:56:50;14.63;;;2.97;;
64351;SDS011;50680;52.626;-8.668;2023-04-01T14:59:28;12.80;;;2.65;;
64351;SDS011;50680;52.626;-8.668;2023-04-01T15:04:47;6.60;;;1.90;;
64351;SDS011;50680;52.626;-8.668;2023-04-01T15:07:21;8.38;;;2.58;;
64351;SDS011;50680;52.626;-8.668;2023-04-01T15:12:42;10.35;;;2.30;;
64351;SDS011;50680;52.626;-8.668;2023-04-01T15:18:17;4.53;;;2.10;;
64351;SDS011;50680;52.626;-8.668;2023-04-01T15:20:56;5.53;;;2.15;;
64351;SDS011;50680;52.626;-8.668;2023-04-01T15:31:43;15.07;;;2.15;;
64351;SDS011;50680;52.626;-8.668;2023-04-01T15:39:23;9.15;;;2.10;;
64351;SDS011;50680;52.626;-8.668;2023-04-01T15:55:31;7.55;;;2.05;;
64351;SDS011;50680;52.626;-8.668;2023-04-01T16:11:56;7.43;;;1.88;;
64351;SDS011;50680;52.626;-8.668;2023-04-01T16:17:37;8.65;;;2.10;;
64351;SDS011;50680;52.626;-8.668;2023-04-01T16:20:20;8.82;;;2.47;;
64351;SDS011;50680;52.626;-8.668;2023-04-01T16:22:57;8.55;;;2.40;;
64351;SDS011;50680;52.626;-8.668;2023-04-01T16:34:21;5.78;;;1.98;;
64351;SDS011;50680;52.626;-8.668;2023-04-01T16:39:38;10.43;;;4.40;;
64351;SDS011;50680;52.626;-8.668;2023-04-01T16:42:38;6.55;;;2.25;;
64351;SDS011;50680;52.626;-8.668;2023-04-01T16:45:22;8.82;;;2.58;;
64351;SDS011;50680;52.626;-8.668;2023-04-01T16:47:52;5.82;;;2.50;;
64351;SDS011;50680;52.626;-8.668;2023-04-01T16:50:24;6.68;;;2.63;;
64351;SDS011;50680;52.626;-8.668;2023-04-01T16:55:50;7.93;;;2.40;;
64351;SDS011;50680;52.626;-8.668;2023-04-01T16:58:27;11.75;;;2.20;;
64351;SDS011;50680;52.626;-8.668;2023-04-01T17:01:07;6.47;;;2.22;;
64351;SDS011;50680;52.626;-8.668;2023-04-01T17:03:40;3.85;;;2.13;;
64351;SDS011;50680;52.626;-8.668;2023-04-01T17:12:02;13.82;;;4.13;;
64351;SDS011;50680;52.626;-8.668;2023-04-01T17:15:02;12.35;;;2.85;;
64351;SDS011;50680;52.626;-8.668;2023-04-01T17:20:49;30.23;;;8.48;;
64351;SDS011;50680;52.626;-8.668;2023-04-01T17:23:35;15.63;;;4.63;;
64351;SDS011;50680;52.626;-8.668;2023-04-01T17:26:27;17.42;;;5.88;;
64351;SDS011;50680;52.626;-8.668;2023-04-01T17:32:12;17.15;;;6.60;;
64351;SDS011;50680;52.626;-8.668;2023-04-01T17:37:38;10.85;;;2.75;;
64351;SDS011;50680;52.626;-8.668;2023-04-01T17:45:57;14.10;;;4.03;;
64351;SDS011;50680;52.626;-8.668;2023-04-01T17:51:28;15.40;;;7.05;;
64351;SDS011;50680;52.626;-8.668;2023-04-01T18:02:42;22.80;;;6.25;;
64351;SDS011;50680;52.626;-8.668;2023-04-01T18:08:26;29.77;;;9.50;;
64351;SDS011;50680;52.626;-8.668;2023-04-01T18:22:29;37.85;;;8.85;;
64351;SDS011;50680;52.626;-8.668;2023-04-01T18:30:57;17.75;;;3.72;;
64351;SDS011;50680;52.626;-8.668;2023-04-01T18:33:53;27.08;;;6.65;;
64351;SDS011;50680;52.626;-8.668;2023-04-01T18:36:40;12.68;;;3.85;;
64351;SDS011;50680;52.626;-8.668;2023-04-01T18:39:22;12.55;;;3.55;;
64351;SDS011;50680;52.626;-8.668;2023-04-01T18:44:50;9.38;;;2.78;;
64351;SDS011;50680;52.626;-8.668;2023-04-01T18:56:24;10.25;;;2.58;;
64351;SDS011;50680;52.626;-8.668;2023-04-01T19:01:39;17.63;;;7.57;;
64351;SDS011;50680;52.626;-8.668;2023-04-01T19:07:24;24.25;;;10.98;;
64351;SDS011;50680;52.626;-8.668;2023-04-01T19:10:00;43.15;;;17.25;;
64351;SDS011;50680;52.626;-8.668;2023-04-01T19:12:41;25.83;;;10.35;;
64351;SDS011;50680;52.626;-8.668;2023-04-01T19:20:47;15.75;;;4.20;;
64351;SDS011;50680;52.626;-8.668;2023-04-01T19:26:20;8.15;;;2.28;;
64351;SDS011;50680;52.626;-8.668;2023-04-01T19:35:07;11.18;;;2.30;;
64351;SDS011;50680;52.626;-8.668;2023-04-01T19:38:30;13.82;;;2.10;;
64351;SDS011;50680;52.626;-8.668;2023-04-01T19:40:38;11.63;;;2.45;;
64351;SDS011;50680;52.626;-8.668;2023-04-01T19:46:14;17.13;;;4.15;;
64351;SDS011;50680;52.626;-8.668;2023-04-01T19:51:43;17.73;;;7.90;;
64351;SDS011;50680;52.626;-8.668;2023-04-01T19:54:25;17.55;;;4.93;;
64351;SDS011;50680;52.626;-8.668;2023-04-01T20:05:16;13.68;;;4.22;;
64351;SDS011;50680;52.626;-8.668;2023-04-01T20:07:51;15.13;;;4.53;;
64351;SDS011;50680;52.626;-8.668;2023-04-01T20:10:22;19.90;;;4.07;;
64351;SDS011;50680;52.626;-8.668;2023-04-01T20:13:00;16.50;;;4.05;;
64351;SDS011;50680;52.626;-8.668;2023-04-01T20:15:43;12.00;;;2.90;;
64351;SDS011;50680;52.626;-8.668;2023-04-01T20:18:18;11.50;;;3.53;;
64351;SDS011;50680;52.626;-8.668;2023-04-01T20:20:56;10.40;;;3.63;;
64351;SDS011;50680;52.626;-8.668;2023-04-01T20:26:08;10.15;;;3.35;;
64351;SDS011;50680;52.626;-8.668;2023-04-01T20:28:42;9.87;;;3.10;;
64351;SDS011;50680;52.626;-8.668;2023-04-01T20:39:39;11.27;;;3.15;;
64351;SDS011;50680;52.626;-8.668;2023-04-01T20:50:33;17.52;;;7.60;;
64351;SDS011;50680;52.626;-8.668;2023-04-01T20:53:15;17.23;;;4.93;;
64351;SDS011;50680;52.626;-8.668;2023-04-01T20:58:20;12.35;;;6.13;;
64351;SDS011;50680;52.626;-8.668;2023-04-01T21:15:04;14.10;;;2.80;;
64351;SDS011;50680;52.626;-8.668;2023-04-01T21:17:49;11.32;;;2.95;;
64351;SDS011;50680;52.626;-8.668;2023-04-01T21:23:36;8.30;;;3.22;;
64351;SDS011;50680;52.626;-8.668;2023-04-01T21:26:46;9.30;;;3.33;;
64351;SDS011;50680;52.626;-8.668;2023-04-01T22:03:33;10.82;;;3.20;;
64351;SDS011;50680;52.626;-8.668;2023-04-01T22:31:41;7.38;;;2.40;;
64351;SDS011;50680;52.626;-8.668;2023-04-01T22:34:16;10.63;;;2.45;;
64351;SDS011;50680;52.626;-8.668;2023-04-01T22:45:28;7.82;;;2.75;;
64351;SDS011;50680;52.626;-8.668;2023-04-01T22:53:57;11.05;;;2.30;;
64351;SDS011;50680;52.626;-8.668;2023-04-01T22:57:40;11.52;;;3.00;;
64351;SDS011;50680;52.626;-8.668;2023-04-01T22:59:43;8.18;;;2.95;;
64351;SDS011;50680;52.626;-8.668;2023-04-01T23:04:57;10.90;;;1.67;;
64351;SDS011;50680;52.626;-8.668;2023-04-01T23:10:47;10.10;;;1.92;;
64351;SDS011;50680;52.626;-8.668;2023-04-01T23:13:26;11.10;;;1.70;;
64351;SDS011;50680;52.626;-8.668;2023-04-01T23:15:58;9.57;;;1.42;;
64351;SDS011;50680;52.626;-8.668;2023-04-01T23:18:27;8.85;;;1.63;;
64351;SDS011;50680;52.626;-8.668;2023-04-01T23:21:13;8.73;;;1.55;;
64351;SDS011;50680;52.626;-8.668;2023-04-01T23:29:02;7.25;;;1.50;;
64351;SDS011;50680;52.626;-8.668;2023-04-01T23:31:36;7.07;;;1.20;;
64351;SDS011;50680;52.626;-8.668;2023-04-01T23:36:38;9.35;;;1.40;;
64351;SDS011;50680;52.626;-8.668;2023-04-01T23:39:11;10.02;;;1.90;;
64351;SDS011;50680;52.626;-8.668;2023-04-01T23:41:50;9.57;;;1.90;;
64351;SDS011;50680;52.626;-8.668;2023-04-01T23:44:19;5.50;;;1.95;;
64351;SDS011;50680;52.626;-8.668;2023-04-01T23:46:47;11.43;;;1.60;;
64351;SDS011;50680;52.626;-8.668;2023-04-01T23:49:18;6.85;;;1.60;;
64351;SDS011;50680;52.626;-8.668;2023-04-01T23:51:53;9.07;;;1.50;;
64351;SDS011;50680;52.626;-8.668;2023-04-01T23:54:24;14.23;;;2.10;;
64351;SDS011;50680;52.626;-8.668;2023-04-01T23:57:10;11.63;;;1.95;;
64351;SDS011;50680;52.626;-8.668;2023-04-01T23:59:40;10.88;;;1.88;;
